createdAt,value
2023-03-25T00:00:16.833Z,44.06
2023-03-25T00:02:49.537Z,43.98
2023-03-25T00:05:19.716Z,43.91
2023-03-25T00:07:49.654Z,44.28
2023-03-25T00:10:16.136Z,43.95
2023-03-25T00:12:42.973Z,44.19
2023-03-25T00:15:11.293Z,44.16
2023-03-25T00:17:38.437Z,44.26
2023-03-25T00:20:08.929Z,44.39
2023-03-25T00:22:40.583Z,44.22
2023-03-25T00:25:19.400Z,44.48
2023-03-25T00:27:48.009Z,43.90
2023-03-25T00:30:14.975Z,43.97
2023-03-25T00:32:41.567Z,44.25
2023-03-25T00:35:08.672Z,44.22
2023-03-25T00:37:35.509Z,43.77
2023-03-25T00:40:03.723Z,44.02
2023-03-25T00:42:30.097Z,43.57
2023-03-25T00:44:56.395Z,43.57
2023-03-25T00:47:22.818Z,43.59
2023-03-25T00:49:49.940Z,43.96
2023-03-25T00:52:16.691Z,43.82
2023-03-25T00:54:43.882Z,43.62
2023-03-25T00:57:10.564Z,43.67
2023-03-25T00:59:36.956Z,43.83
2023-03-25T01:02:06.704Z,43.77
2023-03-25T01:04:34.579Z,43.87
2023-03-25T01:07:01.793Z,43.56
2023-03-25T01:09:28.223Z,43.53
2023-03-25T01:11:54.710Z,43.62
2023-03-25T01:14:24.372Z,43.81
2023-03-25T01:16:50.801Z,43.95
2023-03-25T01:19:17.162Z,43.61
2023-03-25T01:21:45.333Z,43.94
2023-03-25T01:24:15.243Z,43.50
2023-03-25T01:26:46.129Z,43.88
2023-03-25T01:29:16.136Z,43.73
2023-03-25T01:31:43.337Z,43.72
2023-03-25T01:34:11.029Z,43.63
2023-03-25T01:36:39.600Z,43.84
2023-03-25T01:39:06.572Z,43.71
2023-03-25T01:41:48.509Z,43.73
2023-03-25T01:44:21.917Z,43.92
2023-03-25T01:46:53.037Z,43.79
2023-03-25T01:49:24.688Z,43.77
2023-03-25T01:51:56.814Z,44.51
2023-03-25T01:54:23.892Z,44.06
2023-03-25T01:56:52.093Z,44.21
2023-03-25T01:59:20.119Z,44.63
2023-03-25T02:01:47.013Z,44.44
2023-03-25T02:04:16.871Z,44.57
2023-03-25T02:06:51.245Z,44.21
2023-03-25T02:09:21.332Z,44.41
2023-03-25T02:11:47.739Z,44.26
2023-03-25T02:14:27.129Z,44.40
2023-03-25T02:17:32.950Z,44.82
2023-03-25T02:20:07.979Z,44.49
2023-03-25T02:23:11.594Z,44.30
2023-03-25T02:25:56.922Z,43.88
2023-03-25T02:29:19.461Z,43.90
2023-03-25T02:32:12.217Z,43.78
2023-03-25T02:35:09.404Z,44.09
2023-03-25T02:38:07.592Z,43.94
2023-03-25T02:40:47.846Z,43.84
2023-03-25T02:43:22.121Z,43.87
2023-03-25T02:45:53.363Z,44.03
2023-03-25T02:48:27.589Z,44.11
2023-03-25T02:50:57.684Z,44.25
2023-03-25T02:53:29.588Z,43.80
2023-03-25T02:56:01.895Z,44.12
2023-03-25T02:58:30.644Z,43.88
2023-03-25T03:00:58.958Z,43.85
2023-03-25T03:03:27.111Z,44.03
2023-03-25T03:05:59.043Z,43.39
2023-03-25T03:08:31.172Z,43.41
2023-03-25T03:11:16.061Z,43.47
2023-03-25T03:14:21.224Z,43.48
2023-03-25T03:17:00.606Z,43.47
2023-03-25T03:19:39.381Z,43.26
2023-03-25T03:22:17.583Z,43.33
2023-03-25T03:25:04.138Z,43.33
2023-03-25T03:27:39.020Z,43.28
2023-03-25T03:30:13.457Z,43.20
2023-03-25T03:33:25.321Z,43.22
2023-03-25T03:35:57.477Z,43.57
2023-03-25T03:38:32.812Z,43.13
2023-03-25T03:41:04.298Z,43.02
2023-03-25T03:43:42.478Z,43.08
2023-03-25T03:46:18.484Z,42.94
2023-03-25T03:48:50.804Z,43.18
2023-03-25T03:51:24.898Z,42.92
2023-03-25T03:54:00.541Z,43.15
2023-03-25T03:56:38.805Z,42.96
2023-03-25T03:59:13.108Z,43.03
2023-03-25T04:01:47.501Z,43.15
2023-03-25T04:04:22.096Z,42.90
2023-03-25T04:06:57.665Z,42.87
2023-03-25T04:09:34.722Z,43.01
2023-03-25T04:12:09.879Z,43.24
2023-03-25T04:14:38.234Z,43.40
2023-03-25T04:17:05.589Z,43.46
2023-03-25T04:19:35.337Z,43.53
2023-03-25T04:22:05.464Z,43.78
2023-03-25T04:24:32.071Z,43.51
2023-03-25T04:27:03.424Z,43.74
2023-03-25T04:29:33.800Z,43.94
2023-03-25T04:32:01.223Z,43.80
2023-03-25T04:34:28.489Z,43.81
2023-03-25T04:36:56.705Z,44.13
2023-03-25T04:39:25.531Z,43.96
2023-03-25T04:42:03.320Z,43.99
2023-03-25T04:44:33.495Z,44.01
2023-03-25T04:47:02.205Z,44.06
2023-03-25T04:49:29.123Z,44.01
2023-03-25T04:51:56.881Z,43.99
2023-03-25T04:54:23.835Z,44.27
2023-03-25T04:56:52.264Z,44.25
2023-03-25T04:59:19.104Z,44.62
2023-03-25T05:01:46.302Z,44.21
2023-03-25T05:04:17.749Z,44.30
2023-03-25T05:06:51.275Z,44.17
2023-03-25T05:09:22.271Z,44.17
2023-03-25T05:11:50.406Z,44.43
2023-03-25T05:14:18.841Z,44.85
2023-03-25T05:16:46.181Z,44.58
2023-03-25T05:19:13.509Z,44.40
2023-03-25T05:21:42.231Z,44.68
2023-03-25T05:24:10.635Z,44.58
2023-03-25T05:26:41.900Z,44.88
2023-03-25T05:29:15.586Z,44.75
2023-03-25T05:31:45.320Z,44.59
2023-03-25T05:34:14.558Z,44.59
2023-03-25T05:36:41.692Z,44.42
2023-03-25T05:39:08.723Z,44.65
2023-03-25T05:41:39.253Z,44.61
2023-03-25T05:44:10.346Z,44.67
2023-03-25T05:46:38.152Z,44.66
2023-03-25T05:49:04.519Z,44.71
2023-03-25T05:51:34.162Z,44.66
2023-03-25T05:54:01.622Z,44.54
2023-03-25T05:56:28.710Z,44.43
2023-03-25T05:58:56.450Z,44.49
2023-03-25T06:01:32.607Z,44.43
2023-03-25T06:04:02.088Z,44.52
2023-03-25T06:06:30.358Z,44.60
2023-03-25T06:08:56.787Z,44.87
2023-03-25T06:11:23.165Z,44.53
2023-03-25T06:13:51.578Z,44.48
2023-03-25T06:16:27.421Z,44.62
2023-03-25T06:18:59.496Z,44.59
2023-03-25T06:21:28.122Z,44.63
2023-03-25T06:23:57.716Z,44.75
2023-03-25T06:26:24.755Z,44.54
2023-03-25T06:28:51.423Z,44.53
2023-03-25T06:31:20.580Z,44.65
2023-03-25T06:33:48.070Z,44.66
2023-03-25T06:36:18.905Z,44.66
2023-03-25T06:38:50.310Z,44.83
2023-03-25T06:41:20.767Z,44.99
2023-03-25T06:43:48.607Z,44.70
2023-03-25T06:46:16.216Z,44.94
2023-03-25T06:48:42.634Z,44.91
2023-03-25T06:51:09.193Z,44.83
2023-03-25T06:53:35.666Z,44.81
2023-03-25T06:56:02.252Z,44.50
2023-03-25T06:58:35.319Z,44.68
2023-03-25T07:01:06.727Z,44.74
2023-03-25T07:03:34.221Z,45.23
2023-03-25T07:06:00.728Z,44.98
2023-03-25T07:08:27.371Z,44.94
2023-03-25T07:10:53.786Z,44.82
2023-03-25T07:13:20.546Z,45.38
2023-03-25T07:15:46.994Z,45.23
2023-03-25T07:18:13.570Z,45.24
2023-03-25T07:20:40.600Z,45.05
2023-03-25T07:23:12.849Z,45.17
2023-03-25T07:25:39.163Z,45.19
2023-03-25T07:28:06.064Z,45.33
2023-03-25T07:30:32.693Z,44.94
2023-03-25T07:32:59.289Z,44.96
2023-03-25T07:35:26.153Z,45.17
2023-03-25T07:37:52.738Z,44.80
2023-03-25T07:40:19.117Z,44.86
2023-03-25T07:42:45.691Z,44.64
2023-03-25T07:45:12.306Z,44.60
2023-03-25T07:47:38.871Z,43.83
2023-03-25T07:50:05.981Z,44.54
2023-03-25T07:52:32.397Z,44.84
2023-03-25T07:55:00.438Z,44.50
2023-03-25T07:57:26.909Z,44.42
2023-03-25T07:59:53.347Z,44.39
2023-03-25T08:02:20.013Z,44.28
2023-03-25T08:04:46.558Z,44.50
2023-03-25T08:07:13.106Z,44.32
2023-03-25T08:09:42.510Z,44.21
2023-03-25T08:12:09.507Z,44.31
2023-03-25T08:14:35.892Z,44.04
2023-03-25T08:17:02.256Z,44.11
2023-03-25T08:19:28.838Z,43.71
2023-03-25T08:21:55.165Z,43.45
2023-03-25T08:24:21.605Z,43.55
2023-03-25T08:26:48.088Z,43.23
2023-03-25T08:29:17.373Z,43.09
2023-03-25T08:31:46.930Z,43.36
2023-03-25T08:34:14.658Z,43.17
2023-03-25T08:36:41.258Z,42.84
2023-03-25T08:39:11.696Z,42.78
2023-03-25T08:41:39.655Z,43.06
2023-03-25T08:44:08.436Z,43.19
2023-03-25T08:46:35.385Z,43.17
2023-03-25T08:49:02.195Z,43.11
2023-03-25T08:51:28.558Z,43.27
2023-03-25T08:53:55.090Z,43.50
2023-03-25T08:56:21.428Z,43.22
2023-03-25T08:58:47.993Z,43.02
2023-03-25T09:01:14.516Z,42.67
2023-03-25T09:03:41.089Z,42.85
2023-03-25T09:06:08.736Z,42.67
2023-03-25T09:08:37.585Z,42.40
2023-03-25T09:11:04.329Z,42.80
2023-03-25T09:13:30.997Z,42.21
2023-03-25T09:15:58.707Z,42.30
2023-03-25T09:18:26.239Z,42.47
2023-03-25T09:20:52.621Z,42.45
2023-03-25T09:23:19.210Z,42.29
2023-03-25T09:25:46.440Z,42.12
2023-03-25T09:28:13.154Z,42.44
2023-03-25T09:30:39.719Z,42.67
2023-03-25T09:33:06.760Z,42.30
2023-03-25T09:35:33.831Z,42.34
2023-03-25T09:38:00.438Z,42.00
2023-03-25T09:40:27.048Z,42.45
2023-03-25T09:43:08.354Z,42.47
2023-03-25T09:45:43.171Z,42.37
2023-03-25T09:48:32.080Z,42.53
2023-03-25T09:51:11.269Z,42.36
2023-03-25T09:53:49.181Z,42.74
2023-03-25T09:56:24.029Z,43.13
2023-03-25T09:59:00.247Z,43.03
2023-03-25T10:01:42.818Z,43.15
2023-03-25T10:04:25.738Z,42.78
2023-03-25T10:07:22.434Z,42.49
2023-03-25T10:10:12.355Z,42.91
2023-03-25T10:12:51.076Z,42.28
2023-03-25T10:15:21.597Z,43.20
2023-03-25T10:18:11.221Z,43.16
2023-03-25T10:21:02.582Z,42.84
2023-03-25T10:24:11.231Z,43.76
2023-03-25T10:26:49.629Z,43.06
2023-03-25T10:29:21.564Z,43.27
2023-03-25T10:31:53.809Z,43.61
2023-03-25T10:34:28.186Z,43.29
2023-03-25T10:36:58.031Z,42.97
2023-03-25T10:39:37.252Z,43.29
2023-03-25T10:42:31.251Z,42.97
2023-03-25T10:44:57.860Z,43.14
2023-03-25T10:47:31.856Z,42.93
2023-03-25T10:49:59.402Z,42.78
2023-03-25T10:52:25.974Z,42.98
2023-03-25T10:54:56.091Z,42.91
2023-03-25T10:57:31.582Z,43.25
2023-03-25T11:00:12.693Z,43.87
2023-03-25T11:02:39.420Z,43.34
2023-03-25T11:05:08.716Z,44.09
2023-03-25T11:07:38.940Z,44.36
2023-03-25T11:10:14.756Z,45.01
2023-03-25T11:12:48.431Z,44.51
2023-03-25T11:15:20.727Z,44.72
2023-03-25T11:17:55.604Z,45.13
2023-03-25T11:20:28.152Z,45.64
2023-03-25T11:23:03.978Z,45.76
2023-03-25T11:25:36.593Z,45.75
2023-03-25T11:28:10.831Z,45.98
2023-03-25T11:30:37.501Z,45.78
2023-03-25T11:33:09.330Z,46.46
2023-03-25T11:35:43.429Z,46.15
2023-03-25T11:38:21.074Z,47.02
2023-03-25T11:40:54.342Z,46.86
2023-03-25T11:43:27.054Z,47.50
2023-03-25T11:45:54.270Z,46.93
2023-03-25T11:48:30.432Z,47.38
2023-03-25T11:51:01.841Z,47.50
2023-03-25T11:53:32.518Z,47.25
2023-03-25T11:56:10.884Z,47.43
2023-03-25T11:58:39.037Z,47.02
2023-03-25T12:01:22.646Z,48.14
2023-03-25T12:03:49.287Z,47.15
2023-03-25T12:06:19.730Z,47.14
2023-03-25T12:08:57.209Z,46.46
2023-03-25T12:11:42.820Z,46.93
2023-03-25T12:14:47.636Z,46.59
2023-03-25T12:18:06.449Z,46.06
2023-03-25T12:20:51.982Z,45.51
2023-03-25T12:23:42.352Z,46.05
2023-03-25T12:26:14.423Z,45.09
2023-03-25T12:29:02.563Z,44.77
2023-03-25T12:31:47.754Z,45.40
2023-03-25T12:34:32.423Z,44.07
2023-03-25T12:37:30.517Z,44.10
2023-03-25T12:40:16.121Z,44.32
2023-03-25T12:42:48.263Z,43.49
2023-03-25T12:45:17.631Z,43.52
2023-03-25T12:47:55.387Z,43.16
2023-03-25T12:50:51.139Z,43.28
2023-03-25T12:53:32.148Z,43.67
2023-03-25T12:56:16.721Z,43.62
2023-03-25T12:59:27.054Z,43.19
2023-03-25T13:02:07.787Z,43.08
2023-03-25T13:04:53.041Z,42.82
2023-03-25T13:07:28.606Z,42.86
2023-03-25T13:10:05.258Z,42.62
2023-03-25T13:12:37.798Z,42.42
2023-03-25T13:15:15.125Z,42.08
2023-03-25T13:17:50.952Z,42.37
2023-03-25T13:20:20.490Z,42.21
2023-03-25T13:22:52.214Z,42.22
2023-03-25T13:25:24.827Z,41.91
2023-03-25T13:27:52.765Z,42.37
2023-03-25T13:30:26.937Z,41.72
2023-03-25T13:32:58.161Z,41.53
2023-03-25T13:35:47.723Z,41.38
2023-03-25T13:38:24.815Z,41.64
2023-03-25T13:41:33.358Z,40.63
2023-03-25T13:44:27.124Z,40.96
2023-03-25T13:47:01.197Z,40.93
2023-03-25T13:49:33.952Z,40.08
2023-03-25T13:52:00.386Z,40.26
2023-03-25T13:54:56.877Z,40.12
2023-03-25T13:57:26.522Z,40.27
2023-03-25T14:00:23.185Z,39.70
2023-03-25T14:03:01.977Z,39.95
2023-03-25T14:05:46.550Z,39.70
2023-03-25T14:08:53.139Z,39.64
2023-03-25T14:11:48.416Z,39.90
2023-03-25T14:14:22.134Z,39.74
2023-03-25T14:16:56.670Z,40.25
2023-03-25T14:19:31.827Z,40.34
2023-03-25T14:21:59.207Z,40.80
2023-03-25T14:24:32.100Z,40.51
2023-03-25T14:27:04.641Z,40.42
2023-03-25T14:29:41.168Z,39.98
2023-03-25T14:32:32.603Z,40.08
2023-03-25T14:35:33.615Z,40.43
2023-03-25T14:38:06.096Z,39.50
2023-03-25T14:40:59.672Z,39.56
2023-03-25T14:43:40.855Z,39.78
2023-03-25T14:46:19.035Z,40.07
2023-03-25T14:49:04.005Z,39.80
2023-03-25T14:51:30.354Z,40.03
2023-03-25T14:54:03.207Z,39.86
2023-03-25T14:56:41.683Z,39.98
2023-03-25T14:59:10.478Z,40.61
2023-03-25T15:01:40.267Z,40.44
2023-03-25T15:04:22.575Z,40.52
2023-03-25T15:06:49.243Z,40.70
2023-03-25T15:09:18.345Z,40.86
2023-03-25T15:11:54.617Z,40.71
2023-03-25T15:14:27.634Z,40.47
2023-03-25T15:17:01.747Z,40.59
2023-03-25T15:19:28.269Z,41.02
2023-03-25T15:21:57.926Z,40.60
2023-03-25T15:24:28.176Z,40.67
2023-03-25T15:26:57.238Z,40.86
2023-03-25T15:29:42.497Z,40.92
2023-03-25T15:32:44.886Z,41.21
2023-03-25T15:35:34.535Z,41.14
2023-03-25T15:38:41.505Z,41.42
2023-03-25T15:41:46.889Z,41.70
2023-03-25T15:44:51.046Z,41.59
2023-03-25T15:47:37.562Z,42.08
2023-03-25T15:50:26.170Z,41.97
2023-03-25T15:53:17.405Z,42.17
2023-03-25T15:55:55.135Z,41.78
2023-03-25T15:58:32.574Z,41.82
2023-03-25T16:01:15.449Z,42.00
2023-03-25T16:03:44.418Z,41.96
2023-03-25T16:06:15.520Z,42.32
2023-03-25T16:08:46.037Z,42.03
2023-03-25T16:11:21.619Z,42.52
2023-03-25T16:14:00.413Z,41.92
2023-03-25T16:16:29.358Z,41.97
2023-03-25T16:18:56.239Z,41.96
2023-03-25T16:21:22.637Z,41.75
2023-03-25T16:23:53.162Z,42.08
2023-03-25T16:26:38.060Z,41.88
2023-03-25T16:29:10.607Z,41.89
2023-03-25T16:31:42.605Z,41.35
2023-03-25T16:34:16.371Z,41.85
2023-03-25T16:36:48.781Z,41.67
2023-03-25T16:39:16.680Z,41.74
2023-03-25T16:41:48.380Z,41.60
2023-03-25T16:44:18.238Z,41.60
2023-03-25T16:46:46.444Z,41.84
2023-03-25T16:49:19.770Z,41.95
2023-03-25T16:51:47.107Z,41.87
2023-03-25T16:54:27.201Z,41.98
2023-03-25T16:56:54.631Z,41.44
2023-03-25T16:59:32.805Z,42.45
2023-03-25T17:02:01.402Z,42.29
2023-03-25T17:04:42.187Z,42.14
2023-03-25T17:07:14.434Z,42.50
2023-03-25T17:09:43.060Z,42.32
2023-03-25T17:12:11.739Z,42.87
2023-03-25T17:14:42.742Z,42.29
2023-03-25T17:17:19.841Z,42.75
2023-03-25T17:19:51.059Z,42.60
2023-03-25T17:22:26.046Z,42.83
2023-03-25T17:24:57.843Z,42.92
2023-03-25T17:27:39.194Z,42.72
2023-03-25T17:30:21.408Z,42.94
2023-03-25T17:32:49.032Z,43.02
2023-03-25T17:35:23.345Z,43.49
2023-03-25T17:37:50.792Z,43.39
2023-03-25T17:40:22.273Z,43.36
2023-03-25T17:42:48.703Z,43.27
2023-03-25T17:45:17.033Z,43.21
2023-03-25T17:47:43.454Z,43.82
2023-03-25T17:50:15.685Z,43.65
2023-03-25T17:52:42.308Z,43.51
2023-03-25T17:55:09.287Z,43.36
2023-03-25T17:57:37.498Z,43.72
2023-03-25T18:00:08.567Z,43.84
2023-03-25T18:02:34.960Z,43.48
2023-03-25T18:05:01.632Z,43.40
2023-03-25T18:07:27.979Z,43.63
2023-03-25T18:09:54.562Z,43.38
2023-03-25T18:12:21.249Z,43.60
2023-03-25T18:14:49.807Z,43.64
2023-03-25T18:17:16.045Z,43.61
2023-03-25T18:19:42.769Z,43.14
2023-03-25T18:22:19.972Z,43.25
2023-03-25T18:24:47.058Z,43.94
2023-03-25T18:27:14.684Z,43.90
2023-03-25T18:29:41.467Z,44.12
2023-03-25T18:32:08.402Z,44.14
2023-03-25T18:34:35.578Z,44.67
2023-03-25T18:37:02.024Z,44.45
2023-03-25T18:39:28.517Z,44.89
2023-03-25T18:41:54.868Z,45.17
2023-03-25T18:44:21.312Z,45.30
2023-03-25T18:46:47.736Z,45.55
2023-03-25T18:49:18.139Z,46.14
2023-03-25T18:51:47.767Z,46.01
2023-03-25T18:54:14.234Z,45.76
2023-03-25T18:56:43.673Z,46.10
2023-03-25T18:59:17.351Z,46.85
2023-03-25T19:01:43.948Z,46.05
2023-03-25T19:04:10.358Z,45.94
2023-03-25T19:06:39.053Z,45.77
2023-03-25T19:09:07.120Z,45.47
2023-03-25T19:11:35.598Z,45.63
2023-03-25T19:14:01.962Z,45.89
2023-03-25T19:16:28.335Z,46.10
2023-03-25T19:18:54.988Z,46.42
2023-03-25T19:21:21.449Z,46.12
2023-03-25T19:23:47.915Z,45.86
2023-03-25T19:26:15.128Z,45.63
2023-03-25T19:28:41.675Z,45.42
2023-03-25T19:31:08.437Z,45.08
2023-03-25T19:33:34.909Z,45.66
2023-03-25T19:36:03.722Z,45.62
2023-03-25T19:38:32.718Z,45.54
2023-03-25T19:41:17.458Z,46.70
2023-03-25T19:43:44.193Z,45.83
2023-03-25T19:46:11.433Z,45.90
2023-03-25T19:48:37.764Z,45.98
2023-03-25T19:51:04.444Z,46.39
2023-03-25T19:53:31.075Z,46.50
2023-03-25T19:56:02.714Z,47.56
2023-03-25T19:58:29.017Z,47.48
2023-03-25T20:00:55.489Z,47.21
2023-03-25T20:03:23.746Z,47.71
2023-03-25T20:05:56.942Z,48.76
2023-03-25T20:08:23.418Z,47.95
2023-03-25T20:10:50.008Z,48.10
2023-03-25T20:13:16.584Z,48.25
2023-03-25T20:15:42.946Z,48.14
2023-03-25T20:18:09.663Z,48.46
2023-03-25T20:20:36.134Z,49.15
2023-03-25T20:23:02.502Z,48.62
2023-03-25T20:25:28.963Z,48.79
2023-03-25T20:27:55.629Z,48.90
2023-03-25T20:30:22.287Z,48.84
2023-03-25T20:32:49.061Z,48.68
2023-03-25T20:35:17.133Z,48.40
2023-03-25T20:37:45.693Z,48.83
2023-03-25T20:40:13.934Z,49.18
2023-03-25T20:42:42.649Z,48.12
2023-03-25T20:45:11.940Z,48.96
2023-03-25T20:47:38.354Z,49.04
2023-03-25T20:50:07.215Z,49.05
2023-03-25T20:52:34.212Z,48.85
2023-03-25T20:55:00.602Z,48.93
2023-03-25T20:57:26.952Z,49.12
2023-03-25T20:59:53.988Z,49.46
2023-03-25T21:02:21.190Z,49.04
2023-03-25T21:04:48.028Z,49.38
2023-03-25T21:07:14.870Z,49.53
2023-03-25T21:09:41.595Z,49.24
2023-03-25T21:12:08.009Z,49.55
2023-03-25T21:14:37.565Z,49.68
2023-03-25T21:17:04.496Z,49.43
2023-03-25T21:19:32.174Z,49.60
2023-03-25T21:21:58.925Z,49.59
2023-03-25T21:24:25.377Z,49.57
2023-03-25T21:26:51.724Z,49.79
2023-03-25T21:29:19.055Z,49.30
2023-03-25T21:31:45.684Z,49.45
2023-03-25T21:34:15.529Z,49.54
2023-03-25T21:36:43.159Z,49.56
2023-03-25T21:39:10.467Z,49.81
2023-03-25T21:41:37.727Z,49.48
2023-03-25T21:44:06.000Z,49.69
2023-03-25T21:46:33.700Z,49.66
2023-03-25T21:49:02.441Z,49.61
2023-03-25T21:51:30.715Z,49.57
2023-03-25T21:53:58.638Z,50.40
2023-03-25T21:56:27.902Z,48.97
2023-03-25T21:58:54.605Z,49.15
2023-03-25T22:01:28.804Z,49.06
2023-03-25T22:03:57.215Z,48.97
2023-03-25T22:06:29.784Z,49.23
2023-03-25T22:08:59.558Z,48.78
2023-03-25T22:11:31.181Z,48.72
2023-03-25T22:13:58.251Z,49.13
2023-03-25T22:16:25.531Z,48.83
2023-03-25T22:18:52.272Z,48.91
2023-03-25T22:21:29.367Z,48.80
2023-03-25T22:23:58.878Z,49.00
2023-03-25T22:26:26.866Z,48.57
2023-03-25T22:29:01.708Z,48.96
2023-03-25T22:31:31.551Z,48.73
2023-03-25T22:34:03.009Z,48.53
2023-03-25T22:36:34.264Z,49.10
2023-03-25T22:39:01.209Z,48.37
2023-03-25T22:41:27.843Z,48.58
2023-03-25T22:43:54.457Z,48.27
2023-03-25T22:46:21.548Z,48.46
2023-03-25T22:48:48.393Z,48.60
2023-03-25T22:51:16.858Z,48.69
2023-03-25T22:53:43.419Z,48.64
2023-03-25T22:56:10.968Z,48.81
2023-03-25T22:58:38.284Z,48.95
2023-03-25T23:01:17.229Z,49.01
2023-03-25T23:03:43.707Z,48.38
2023-03-25T23:06:10.574Z,48.43
2023-03-25T23:08:39.406Z,48.78
2023-03-25T23:11:12.322Z,49.22
2023-03-25T23:13:41.222Z,48.69
2023-03-25T23:16:20.610Z,49.27
2023-03-25T23:18:47.410Z,48.45
2023-03-25T23:21:18.675Z,48.87
2023-03-25T23:23:52.255Z,48.75
2023-03-25T23:26:24.926Z,48.79
2023-03-25T23:28:52.866Z,48.44
2023-03-25T23:31:22.379Z,48.78
2023-03-25T23:33:51.205Z,48.53
2023-03-25T23:36:19.656Z,48.69
2023-03-25T23:38:48.133Z,48.56
2023-03-25T23:41:15.529Z,48.78
2023-03-25T23:43:42.635Z,48.33
2023-03-25T23:46:11.618Z,48.74
2023-03-25T23:48:42.001Z,48.73
2023-03-25T23:51:10.980Z,48.63
2023-03-25T23:53:39.455Z,48.78
2023-03-25T23:56:06.565Z,48.84
2023-03-25T23:58:34.054Z,48.48
